Time;durP1;ratioP1;P1;durP2;ratioP2;P2;SDS_P1;SDS_P2;PMS_P1;PMS_P2;Temp;Humidity;BMP_temperature;BMP_pressure;BME280_temperature;BME280_humidity;BME280_pressure;Samples;Min_cycle;Max_cycle;Signal;HPM_P1;HPM_P2
2023/07/10 00:02:25;;;;;;;7.82;3.40;;;;;;;23.95;43.17;100848.69;5092037;28;20049;-90
2023/07/10 00:04:50;;;;;;;12.73;3.97;;;;;;;23.76;43.47;100835.72;5104137;28;20418;-90
2023/07/10 00:07:16;;;;;;;16.65;4.18;;;;;;;23.74;43.44;100833.19;5115369;28;20020;-90
2023/07/10 00:09:41;;;;;;;18.17;3.13;;;;;;;23.79;43.32;100844.38;5130279;28;20034;-89
2023/07/10 00:12:13;;;;;;;8.00;2.70;;;;;;;23.69;43.46;100832.97;5094520;28;20024;-89
2023/07/10 00:14:38;;;;;;;5.05;2.75;;;;;;;23.69;43.70;100837.59;5120892;28;20028;-89
2023/07/10 00:17:07;;;;;;;9.60;3.58;;;;;;;23.68;43.59;100825.75;5115201;28;20019;-89
2023/07/10 00:19:33;;;;;;;12.05;3.30;;;;;;;23.77;43.47;100835.53;5052108;28;20098;-89
2023/07/10 00:21:58;;;;;;;6.10;3.35;;;;;;;23.78;43.73;100837.22;5036237;28;20510;-89
2023/07/10 00:24:24;;;;;;;10.85;3.35;;;;;;;23.78;43.16;100853.72;5052120;28;20112;-88
2023/07/10 00:26:49;;;;;;;7.57;3.15;;;;;;;23.78;43.29;100853.72;5034795;28;20418;-89
2023/07/10 00:29:20;;;;;;;7.22;2.83;;;;;;;23.68;43.23;100842.25;5051460;28;20064;-90
2023/07/10 00:31:45;;;;;;;12.63;3.85;;;;;;;23.72;44.44;100845.44;5058537;28;20048;-89
2023/07/10 00:34:17;;;;;;;19.27;3.60;;;;;;;23.75;44.56;100843.13;5052421;28;20037;-90
2023/07/10 00:36:45;;;;;;;16.95;4.82;;;;;;;23.61;45.27;100835.88;5051729;28;20114;-89
2023/07/10 00:39:24;;;;;;;19.92;5.85;;;;;;;23.68;46.01;100847.72;5052284;28;20489;-90
2023/07/10 00:42:12;;;;;;;8.50;5.13;;;;;;;23.65;46.26;100839.91;5050740;28;20045;-88
2023/07/10 00:44:47;;;;;;;24.75;5.97;;;;;;;23.66;46.32;100849.00;5050417;28;20064;-88
2023/07/10 00:47:25;;;;;;;13.00;4.82;;;;;;;23.65;46.54;100841.81;5049163;28;20036;-83
2023/07/10 00:50:02;;;;;;;20.58;5.53;;;;;;;23.58;46.83;100844.50;5048158;28;20128;-84
2023/07/10 00:52:34;;;;;;;8.13;4.25;;;;;;;23.54;46.49;100829.53;5048096;28;20029;-83
2023/07/10 00:55:01;;;;;;;17.05;4.43;;;;;;;23.50;46.58;100836.47;5048080;28;20481;-85
2023/07/10 00:57:34;;;;;;;9.40;4.57;;;;;;;23.38;46.57;100846.28;5091009;28;20092;-86
2023/07/10 01:00:15;;;;;;;25.02;4.95;;;;;;;23.30;46.68;100843.72;5111591;28;20451;-83
2023/07/10 01:02:40;;;;;;;21.95;4.72;;;;;;;23.26;46.78;100845.16;5110962;28;20054;-85
2023/07/10 01:05:06;;;;;;;17.85;4.68;;;;;;;23.18;46.71;100845.31;5111230;28;20028;-84
2023/07/10 01:07:38;;;;;;;19.42;4.13;;;;;;;23.12;46.88;100826.91;5111036;28;20031;-84
2023/07/10 01:10:07;;;;;;;15.20;4.20;;;;;;;23.25;46.56;100854.44;5110991;28;20027;-84
2023/07/10 01:12:33;;;;;;;10.20;4.28;;;;;;;23.18;46.81;100840.66;5110884;28;20510;-83
2023/07/10 01:14:59;;;;;;;14.98;4.20;;;;;;;23.14;46.49;100849.53;5110691;28;20490;-83
2023/07/10 01:17:25;;;;;;;9.95;3.92;;;;;;;23.20;46.23;100837.75;5110572;28;20023;-84
2023/07/10 01:19:54;;;;;;;9.93;4.35;;;;;;;23.15;46.41;100840.22;5092876;28;20032;-84
2023/07/10 01:22:20;;;;;;;13.85;4.10;;;;;;;23.14;46.57;100838.53;5110916;28;20449;-83
2023/07/10 01:24:52;;;;;;;9.88;3.92;;;;;;;23.23;45.95;100837.34;5116211;28;20023;-84
2023/07/10 01:27:20;;;;;;;10.93;3.60;;;;;;;23.17;45.92;100840.88;5092826;28;20395;-84
2023/07/10 01:29:56;;;;;;;12.38;4.45;;;;;;;23.12;45.72;100841.47;5109588;28;20084;-86
2023/07/10 01:32:23;;;;;;;15.75;3.97;;;;;;;23.23;45.81;100848.31;5110669;28;20024;-84
2023/07/10 01:34:55;;;;;;;9.65;4.07;;;;;;;23.24;45.84;100845.34;5110848;28;20077;-85
2023/07/10 01:37:20;;;;;;;21.70;6.10;;;;;;;23.18;45.94;100850.78;5110551;28;20024;-84
2023/07/10 01:39:50;;;;;;;7.68;4.03;;;;;;;23.18;45.93;100861.75;5110430;28;20039;-84
2023/07/10 01:42:15;;;;;;;23.70;4.10;;;;;;;23.25;45.78;100866.25;5110239;28;20035;-83
2023/07/10 01:44:43;;;;;;;9.27;3.75;;;;;;;23.21;45.55;100867.72;5110429;28;20088;-83
2023/07/10 01:47:10;;;;;;;16.67;4.03;;;;;;;23.06;46.09;100844.16;5110592;28;20119;-85
2023/07/10 01:49:41;;;;;;;13.82;4.07;;;;;;;23.20;46.06;100866.03;5110228;28;20509;-84
2023/07/10 01:52:09;;;;;;;11.98;4.18;;;;;;;23.19;46.66;100866.22;5110295;28;20062;-84
2023/07/10 01:54:35;;;;;;;15.13;5.05;;;;;;;23.10;46.58;100850.97;5110020;28;20028;-83
2023/07/10 01:57:00;;;;;;;17.80;4.75;;;;;;;23.10;46.89;100856.44;5110970;28;20016;-84
2023/07/10 01:59:26;;;;;;;18.38;5.45;;;;;;;23.15;46.85;100867.66;5111245;28;20059;-82
2023/07/10 02:01:55;;;;;;;13.88;4.88;;;;;;;23.05;47.08;100861.69;5116910;28;20032;-84
2023/07/10 02:04:21;;;;;;;23.30;7.05;;;;;;;22.94;47.64;100848.50;5122484;28;20091;-83
2023/07/10 02:06:47;;;;;;;14.77;6.43;;;;;;;23.01;47.71;100855.75;5095784;28;20169;-82
2023/07/10 02:09:12;;;;;;;22.25;6.57;;;;;;;23.00;47.89;100864.16;5110731;28;20110;-84
2023/07/10 02:11:38;;;;;;;14.70;6.25;;;;;;;22.91;47.75;100848.91;5110176;28;20508;-83
2023/07/10 02:14:08;;;;;;;10.27;6.15;;;;;;;22.96;47.75;100857.41;5110110;28;20042;-83
2023/07/10 02:16:34;;;;;;;23.65;7.07;;;;;;;22.96;48.05;100865.63;5110406;28;20028;-83
2023/07/10 02:19:00;;;;;;;20.25;7.57;;;;;;;22.86;48.25;100859.66;5092033;28;20047;-84
2023/07/10 02:21:26;;;;;;;17.30;5.97;;;;;;;22.82;48.19;100855.59;5110861;28;20380;-85
2023/07/10 02:23:51;;;;;;;24.60;7.38;;;;;;;22.80;48.37;100844.84;5109840;28;20027;-85
2023/07/10 02:26:17;;;;;;;27.92;7.25;;;;;;;22.86;48.18;100876.09;5127516;28;20055;-82
2023/07/10 02:28:43;;;;;;;16.85;6.05;;;;;;;22.82;48.39;100861.06;5115605;28;20035;-85
2023/07/10 02:31:10;;;;;;;19.98;5.93;;;;;;;22.78;48.21;100866.97;5110396;28;20035;-84
2023/07/10 02:33:35;;;;;;;14.07;4.72;;;;;;;22.68;48.32;100855.50;5093129;28;21072;-83
2023/07/10 02:36:02;;;;;;;12.10;4.13;;;;;;;22.73;48.13;100871.34;5117619;28;20032;-86
2023/07/10 02:38:27;;;;;;;17.70;5.03;;;;;;;22.52;48.36;100872.19;5110434;28;20028;-84
2023/07/10 02:40:53;;;;;;;16.20;5.57;;;;;;;22.57;48.23;100879.81;5109553;28;20065;-83
2023/07/10 02:43:19;;;;;;;15.90;4.75;;;;;;;22.54;48.17;100885.69;5109704;28;20556;-85
2023/07/10 02:45:45;;;;;;;14.77;5.15;;;;;;;22.53;48.05;100887.59;5091522;28;20031;-85
2023/07/10 02:48:10;;;;;;;10.25;4.18;;;;;;;22.46;48.15;100877.59;5109548;28;20024;-86
2023/07/10 02:50:36;;;;;;;8.57;4.13;;;;;;;22.49;48.03;100874.47;5091263;28;20127;-84
2023/07/10 02:53:01;;;;;;;13.82;4.43;;;;;;;22.45;48.11;100871.25;5091195;28;20028;-84
2023/07/10 02:55:27;;;;;;;12.30;3.85;;;;;;;22.44;48.24;100871.47;5110051;28;20119;-84
2023/07/10 02:57:52;;;;;;;8.10;3.58;;;;;;;22.33;48.12;100861.88;5109618;28;20030;-84
2023/07/10 03:00:18;;;;;;;8.85;3.55;;;;;;;22.48;47.92;100875.50;5109594;28;20499;-84
2023/07/10 03:02:43;;;;;;;10.18;3.90;;;;;;;22.37;48.40;100874.16;5109454;28;20487;-85
2023/07/10 03:05:09;;;;;;;20.98;4.80;;;;;;;22.41;48.25;100880.09;5109776;28;20024;-84
2023/07/10 03:07:35;;;;;;;10.55;4.22;;;;;;;22.38;48.36;100875.84;5110276;28;20492;-84
2023/07/10 03:10:00;;;;;;;8.02;3.78;;;;;;;22.51;48.41;100892.41;5110018;28;20160;-84
2023/07/10 03:12:27;;;;;;;11.05;4.63;;;;;;;22.53;48.55;100890.34;5110221;28;20062;-84
2023/07/10 03:14:52;;;;;;;18.92;5.57;;;;;;;22.50;49.12;100879.78;5110122;28;20031;-84
2023/07/10 03:17:18;;;;;;;29.35;8.18;;;;;;;22.50;49.22;100890.72;5111269;28;20031;-83
2023/07/10 03:19:44;;;;;;;20.08;6.25;;;;;;;22.49;49.67;100880.81;5114028;28;20499;-83
2023/07/10 03:22:10;;;;;;;26.67;7.07;;;;;;;22.50;49.85;100885.25;5110110;28;20023;-84
2023/07/10 03:24:35;;;;;;;19.67;7.25;;;;;;;22.48;50.08;100884.56;5110604;28;20038;-84
2023/07/10 03:27:04;;;;;;;20.88;8.07;;;;;;;22.45;50.46;100890.44;5110074;28;20585;-84
2023/07/10 03:29:30;;;;;;;31.90;8.18;;;;;;;22.42;50.45;100882.63;5057317;28;20043;-84
2023/07/10 03:31:55;;;;;;;32.20;8.13;;;;;;;22.44;50.53;100883.28;5110828;28;20023;-83
2023/07/10 03:34:21;;;;;;;37.30;9.57;;;;;;;22.34;50.67;100874.53;5110971;28;20039;-85
2023/07/10 03:36:46;;;;;;;18.40;7.38;;;;;;;22.39;51.00;100893.97;5111802;28;20020;-85
2023/07/10 03:39:12;;;;;;;32.17;9.20;;;;;;;22.39;50.92;100890.38;5110381;28;20020;-85
2023/07/10 03:41:38;;;;;;;21.20;7.82;;;;;;;22.43;50.89;100897.19;5111176;28;20380;-84
2023/07/10 03:44:04;;;;;;;19.75;7.60;;;;;;;22.37;50.83;100901.56;5092860;28;20034;-83
2023/07/10 03:46:29;;;;;;;26.52;8.32;;;;;;;22.26;51.23;100893.00;5111410;28;20038;-85
2023/07/10 03:48:55;;;;;;;33.72;9.07;;;;;;;22.36;51.34;100905.31;5111426;28;20415;-83
2023/07/10 03:51:20;;;;;;;26.85;7.80;;;;;;;22.26;51.45;100893.84;5113474;28;20527;-84
2023/07/10 03:53:46;;;;;;;25.40;8.75;;;;;;;22.35;51.17;100908.28;5107603;28;20023;-87
2023/07/10 03:56:12;;;;;;;30.05;8.15;;;;;;;22.47;51.05;100912.19;5134302;28;20027;-84
2023/07/10 03:58:44;;;;;;;88.63;17.38;;;;;;;22.43;51.34;100878.84;5137280;28;20050;-87
2023/07/10 04:01:11;;;;;;;25.02;8.30;;;;;;;22.45;51.05;100898.69;5129524;28;20091;-84
2023/07/10 04:03:38;;;;;;;36.60;8.82;;;;;;;22.54;51.17;100908.47;5125345;28;20114;-86
2023/07/10 04:06:05;;;;;;;29.70;8.07;;;;;;;22.52;50.90;100898.75;5128174;28;20016;-87
2023/07/10 04:08:33;;;;;;;26.58;7.40;;;;;;;22.67;50.61;100905.03;5120465;28;20023;-84
2023/07/10 04:11:02;;;;;;;27.08;8.23;;;;;;;22.83;50.57;100923.97;5117285;28;20024;-86
2023/07/10 04:13:28;;;;;;;34.45;8.15;;;;;;;22.77;49.93;100911.06;5122131;28;20073;-89
2023/07/10 04:15:59;;;;;;;21.25;8.77;;;;;;;22.98;49.18;100922.00;5102657;28;20027;-89
2023/07/10 04:18:30;;;;;;;26.70;6.38;;;;;;;22.91;49.18;100903.78;5101081;28;20027;-90
2023/07/10 04:20:58;;;;;;;20.73;7.22;;;;;;;23.03;49.45;100919.50;5115577;28;20483;-87
2023/07/10 04:23:23;;;;;;;15.27;7.13;;;;;;;23.06;49.09;100935.56;5117373;28;20403;-87
2023/07/10 04:25:49;;;;;;;43.85;9.10;;;;;;;23.11;49.46;100932.25;5100451;28;20019;-89
2023/07/10 04:28:14;;;;;;;9.85;6.20;;;;;;;23.19;49.19;100932.09;5124641;28;20024;-87
2023/07/10 04:30:40;;;;;;;19.40;6.47;;;;;;;23.26;48.49;100913.78;5125420;28;20027;-86
2023/07/10 04:33:08;;;;;;;14.07;6.18;;;;;;;23.30;48.22;100904.94;5120760;28;20023;-88
2023/07/10 04:35:34;;;;;;;31.10;7.43;;;;;;;23.50;47.90;100921.56;5117091;28;20015;-86
2023/07/10 04:38:00;;;;;;;19.33;6.15;;;;;;;23.57;48.04;100925.22;5114245;28;20118;-89
2023/07/10 04:40:26;;;;;;;36.45;7.13;;;;;;;23.71;47.35;100920.63;5096448;28;20062;-89
2023/07/10 04:42:53;;;;;;;21.77;6.97;;;;;;;23.73;47.87;100922.13;5113901;28;20507;-85
2023/07/10 04:45:18;;;;;;;18.42;7.78;;;;;;;23.76;47.36;100921.72;5113581;28;20049;-85
2023/07/10 04:47:44;;;;;;;16.70;6.60;;;;;;;23.82;47.33;100920.06;5098063;28;20020;-86
2023/07/10 04:50:10;;;;;;;13.65;5.15;;;;;;;23.90;47.03;100897.06;5120005;28;20031;-85
2023/07/10 04:52:35;;;;;;;15.93;6.07;;;;;;;24.06;46.94;100918.69;5115934;28;20023;-91
2023/07/10 04:55:02;;;;;;;15.48;6.05;;;;;;;24.13;46.31;100901.19;5130899;28;20168;-86
2023/07/10 04:57:27;;;;;;;22.95;6.50;;;;;;;24.29;46.58;100910.97;5119662;28;20072;-84
2023/07/10 04:59:53;;;;;;;28.50;6.82;;;;;;;24.47;46.30;100919.47;5114334;28;20457;-85
2023/07/10 05:02:18;;;;;;;19.35;7.15;;;;;;;24.54;46.23;100898.34;5096070;28;20341;-84
2023/07/10 05:04:44;;;;;;;28.95;8.07;;;;;;;24.72;46.10;100912.34;5113288;28;20059;-85
2023/07/10 05:07:09;;;;;;;24.85;8.00;;;;;;;24.83;45.84;100897.97;5113188;28;20020;-88
2023/07/10 05:09:35;;;;;;;27.10;7.60;;;;;;;25.10;45.33;100909.00;5097181;28;20084;-89
2023/07/10 05:12:01;;;;;;;19.80;6.40;;;;;;;25.20;45.47;100898.38;5113808;28;20111;-88
2023/07/10 05:14:26;;;;;;;36.85;8.60;;;;;;;25.32;45.33;100902.19;5124178;28;20483;-90
2023/07/10 05:16:52;;;;;;;24.20;7.68;;;;;;;25.38;45.35;100896.66;5117309;28;20031;-86
2023/07/10 05:19:17;;;;;;;28.75;8.20;;;;;;;25.51;45.43;100900.47;5111131;28;20511;-85
2023/07/10 05:21:43;;;;;;;31.95;7.25;;;;;;;25.58;45.48;100896.66;5113864;28;20081;-87
2023/07/10 05:24:09;;;;;;;29.83;8.00;;;;;;;25.63;45.38;100899.59;5094401;28;20494;-87
2023/07/10 05:26:34;;;;;;;32.03;8.23;;;;;;;25.59;45.76;100901.13;5098010;28;20035;-87
2023/07/10 05:29:00;;;;;;;24.08;7.13;;;;;;;25.54;46.10;100911.94;5113331;28;20039;-85
2023/07/10 05:31:25;;;;;;;22.77;7.13;;;;;;;25.54;46.31;100911.94;5095032;28;20027;-88
2023/07/10 05:33:51;;;;;;;31.17;8.32;;;;;;;25.67;46.37;100914.66;5112662;28;20034;-92
2023/07/10 05:36:18;;;;;;;29.98;6.25;;;;;;;25.72;46.47;100920.34;5114184;28;20073;-87
2023/07/10 05:38:48;;;;;;;32.50;8.80;;;;;;;25.75;46.91;100924.56;5114333;28;20081;-89
2023/07/10 05:41:18;;;;;;;22.85;9.30;;;;;;;25.82;47.41;100920.75;5069610;28;20134;-85
2023/07/10 05:43:44;;;;;;;23.13;9.52;;;;;;;25.78;48.15;100913.13;5070827;28;20094;-87
2023/07/10 05:46:10;;;;;;;27.25;7.95;;;;;;;26.01;47.78;100924.50;5066754;28;20458;-81
2023/07/10 05:48:36;;;;;;;36.15;8.63;;;;;;;26.14;47.37;100910.66;5066062;28;20085;-81
2023/07/10 05:51:01;;;;;;;20.50;7.90;;;;;;;26.02;47.18;100870.22;5069729;28;20037;-89
2023/07/10 05:53:27;;;;;;;18.90;8.25;;;;;;;26.36;46.95;100903.78;5050984;28;20024;-83
2023/07/10 05:55:54;;;;;;;36.97;8.18;;;;;;;26.46;46.73;100908.81;5066121;28;20144;-84
2023/07/10 05:58:21;;;;;;;36.75;9.77;;;;;;;26.51;46.57;100903.50;5050895;28;20040;-85
2023/07/10 06:00:49;;;;;;;43.60;9.40;;;;;;;26.65;45.98;100894.03;5033325;28;20044;-86
2023/07/10 06:03:15;;;;;;;27.17;8.45;;;;;;;26.79;45.81;100901.16;5033011;28;20623;-84
2023/07/10 06:05:40;;;;;;;27.65;7.57;;;;;;;26.76;44.81;100890.56;5046809;28;20039;-82
2023/07/10 06:08:09;;;;;;;33.80;9.00;;;;;;;26.73;45.01;100885.47;5046285;28;20114;-82
2023/07/10 06:10:34;;;;;;;36.10;10.20;;;;;;;26.93;44.34;100908.31;5046190;28;20037;-81
2023/07/10 06:13:00;;;;;;;37.28;10.70;;;;;;;26.93;44.11;100908.31;5061117;28;20083;-81
2023/07/10 06:15:26;;;;;;;43.75;9.80;;;;;;;27.04;44.24;100904.81;5068686;28;20024;-81
2023/07/10 06:17:51;;;;;;;24.42;7.55;;;;;;;27.02;43.75;100892.31;5068918;28;20468;-82
2023/07/10 06:20:17;;;;;;;32.40;8.40;;;;;;;27.15;43.11;100905.16;5067434;28;20031;-83
2023/07/10 06:22:42;;;;;;;55.63;18.90;;;;;;;27.17;43.27;100908.50;5070008;28;20032;-81
2023/07/10 06:25:08;;;;;;;35.20;10.02;;;;;;;27.25;43.09;100899.94;5068759;28;20491;-84
2023/07/10 06:27:34;;;;;;;22.42;8.20;;;;;;;27.24;42.65;100901.03;5069318;28;20032;-81
2023/07/10 06:29:59;;;;;;;31.25;8.18;;;;;;;27.22;43.12;100900.38;5069046;28;20020;-82
2023/07/10 06:32:25;;;;;;;26.52;7.10;;;;;;;27.29;42.71;100895.66;5069055;28;20067;-82
2023/07/10 06:34:51;;;;;;;28.33;9.10;;;;;;;27.25;42.66;100878.69;5070028;28;20029;-83
2023/07/10 06:37:16;;;;;;;23.25;8.00;;;;;;;27.43;42.40;100894.50;5069077;28;20767;-83
2023/07/10 06:39:42;;;;;;;24.58;6.35;;;;;;;27.51;42.42;100899.72;5070129;28;20130;-84
2023/07/10 06:42:07;;;;;;;16.13;5.90;;;;;;;27.56;42.16;100899.84;5109812;28;20019;-82
2023/07/10 06:44:33;;;;;;;23.83;7.22;;;;;;;27.54;42.18;100888.19;5109534;28;20106;-83
2023/07/10 06:46:58;;;;;;;20.42;6.60;;;;;;;27.73;41.80;100895.44;5109804;28;20032;-82
2023/07/10 06:49:23;;;;;;;14.82;5.35;;;;;;;27.72;41.19;100871.63;5092400;28;20030;-82
2023/07/10 06:51:49;;;;;;;19.13;5.97;;;;;;;27.90;41.56;100888.19;5111701;28;20125;-82
2023/07/10 06:54:14;;;;;;;14.75;5.68;;;;;;;27.93;40.99;100868.38;5112202;28;20388;-83
2023/07/10 06:56:40;;;;;;;17.90;5.18;;;;;;;28.01;40.53;100868.03;5112529;28;20030;-81
2023/07/10 06:59:05;;;;;;;13.27;4.88;;;;;;;28.12;40.86;100863.69;5112591;28;20027;-83
2023/07/10 07:01:31;;;;;;;17.25;5.63;;;;;;;28.28;40.86;100878.78;5115154;28;20051;-82
2023/07/10 07:03:56;;;;;;;18.25;5.60;;;;;;;28.32;39.54;100868.91;5125732;28;20399;-82
2023/07/10 07:06:22;;;;;;;15.80;4.72;;;;;;;28.47;39.72;100880.44;5115955;28;20019;-82
2023/07/10 07:08:51;;;;;;;21.08;5.00;;;;;;;28.63;39.95;100885.28;5115162;28;20035;-82
2023/07/10 07:11:16;;;;;;;16.75;5.53;;;;;;;28.68;40.27;100873.53;5110880;28;20027;-82
2023/07/10 07:13:41;;;;;;;22.48;6.65;;;;;;;28.71;39.99;100862.84;5091112;28;20027;-83
2023/07/10 07:16:07;;;;;;;17.27;6.13;;;;;;;28.84;40.26;100868.13;5109321;28;20503;-83
2023/07/10 07:18:32;;;;;;;19.40;5.80;;;;;;;28.75;40.09;100836.34;5091142;28;20498;-83
2023/07/10 07:20:59;;;;;;;19.45;6.22;;;;;;;28.88;39.88;100849.97;5110565;28;20077;-83
2023/07/10 07:23:26;;;;;;;23.50;5.38;;;;;;;29.08;40.08;100874.56;5110282;28;20137;-82
2023/07/10 07:25:54;;;;;;;14.57;6.53;;;;;;;29.02;39.95;100854.19;5110084;28;20534;-81
2023/07/10 07:28:20;;;;;;;19.35;6.35;;;;;;;29.20;40.04;100872.63;5116495;28;20031;-84
2023/07/10 07:30:48;;;;;;;18.58;5.82;;;;;;;29.07;40.03;100850.72;5115464;28;20026;-82
2023/07/10 07:33:15;;;;;;;15.90;5.82;;;;;;;29.28;39.92;100869.53;5114066;28;20502;-82
2023/07/10 07:35:40;;;;;;;22.13;5.50;;;;;;;29.23;39.84;100860.22;5113805;28;20165;-82
2023/07/10 07:38:06;;;;;;;24.80;6.07;;;;;;;29.31;39.47;100860.72;5113808;28;20114;-82
2023/07/10 07:40:31;;;;;;;12.60;5.45;;;;;;;29.24;39.27;100835.06;5113061;28;20047;-82
2023/07/10 07:42:57;;;;;;;25.90;6.30;;;;;;;29.39;39.71;100851.19;5113806;28;20025;-83
2023/07/10 07:45:22;;;;;;;14.48;6.13;;;;;;;29.48;39.21;100839.50;5113549;28;20031;-83
2023/07/10 07:47:48;;;;;;;37.15;5.93;;;;;;;29.47;38.84;100818.41;5113689;28;20052;-83
2023/07/10 07:50:14;;;;;;;22.73;5.43;;;;;;;29.60;38.46;100840.31;5113564;28;20024;-83
2023/07/10 07:52:39;;;;;;;17.33;4.78;;;;;;;29.79;37.72;100846.53;5113443;28;20024;-83
2023/07/10 07:55:08;;;;;;;11.10;4.55;;;;;;;29.95;37.60;100843.03;5112794;28;20037;-83
2023/07/10 07:57:34;;;;;;;11.10;4.65;;;;;;;30.04;37.84;100824.91;5112824;28;20051;-84
2023/07/10 07:59:59;;;;;;;30.13;4.85;;;;;;;30.22;37.48;100824.69;5113167;28;20032;-83
2023/07/10 08:02:25;;;;;;;24.85;5.38;;;;;;;30.24;37.31;100816.94;5113056;28;20035;-84
2023/07/10 08:04:51;;;;;;;16.50;5.03;;;;;;;30.35;36.71;100817.13;5112719;28;20038;-84
2023/07/10 08:07:16;;;;;;;18.60;4.80;;;;;;;30.37;36.55;100817.72;5113123;28;20106;-82
2023/07/10 08:09:42;;;;;;;9.25;3.95;;;;;;;30.30;35.80;100817.91;5112432;28;20380;-82
2023/07/10 08:12:08;;;;;;;16.67;4.38;;;;;;;30.30;35.84;100806.81;5112772;28;20024;-81
2023/07/10 08:14:34;;;;;;;17.42;4.50;;;;;;;30.24;36.00;100797.53;5112671;28;20028;-83
2023/07/10 08:16:59;;;;;;;10.63;4.35;;;;;;;30.35;35.84;100808.81;5110352;28;20123;-82
2023/07/10 08:19:25;;;;;;;14.90;5.00;;;;;;;30.38;35.75;100813.88;5093915;28;20031;-82
2023/07/10 08:21:50;;;;;;;16.02;4.38;;;;;;;30.33;35.83;100799.91;5111855;28;20027;-82
2023/07/10 08:24:16;;;;;;;19.63;4.10;;;;;;;30.29;35.48;100799.56;5111936;28;20028;-82
2023/07/10 08:26:41;;;;;;;9.55;3.90;;;;;;;30.49;32.78;100819.38;5112357;28;20508;-85
2023/07/10 08:29:23;;;;;;;11.63;3.88;;;;;;;30.60;32.10;100807.38;5112416;28;20031;-82
2023/07/10 08:31:49;;;;;;;18.23;4.80;;;;;;;30.77;31.87;100812.91;5116277;28;20038;-81
2023/07/10 08:34:14;;;;;;;5.97;4.03;;;;;;;30.87;31.37;100798.34;5113167;28;20024;-82
2023/07/10 08:36:40;;;;;;;14.52;3.92;;;;;;;31.10;31.07;100801.78;5097123;28;20027;-83
2023/07/10 08:39:05;;;;;;;9.23;3.38;;;;;;;31.36;30.40;100800.22;5132168;28;20032;-83
2023/07/10 08:41:31;;;;;;;13.07;3.88;;;;;;;31.61;30.72;100802.53;5116241;28;20044;-84
2023/07/10 08:44:00;;;;;;;10.43;3.95;;;;;;;31.85;30.52;100784.47;5088323;28;20063;-86
2023/07/10 08:46:26;;;;;;;7.55;3.17;;;;;;;32.03;29.98;100778.56;5080029;28;20024;-83
2023/07/10 08:49:14;;;;;;;6.07;3.40;;;;;;;32.48;29.71;100806.00;5101647;28;20387;-82
2023/07/10 08:51:53;;;;;;;5.13;3.55;;;;;;;32.57;29.18;100801.66;5097657;28;20110;-82
2023/07/10 08:54:18;;;;;;;13.32;3.80;;;;;;;32.58;28.86;100791.38;5096252;28;20020;-83
2023/07/10 08:57:20;;;;;;;8.95;3.28;;;;;;;32.69;29.02;100790.38;5074840;28;20028;-83
2023/07/10 08:59:58;;;;;;;13.63;4.10;;;;;;;32.80;28.70;100792.13;5092226;28;20075;-83
2023/07/10 09:02:48;;;;;;;13.70;3.88;;;;;;;32.78;29.46;100794.34;5091053;28;20324;-82
2023/07/10 09:05:24;;;;;;;9.45;3.67;;;;;;;32.59;30.30;100770.78;5090719;28;20035;-83
2023/07/10 09:07:50;;;;;;;8.25;3.38;;;;;;;32.62;30.10;100792.53;5092089;28;20063;-82
2023/07/10 09:10:21;;;;;;;9.93;3.63;;;;;;;32.63;30.27;100795.03;5090525;28;20132;-81
2023/07/10 09:12:59;;;;;;;8.02;3.83;;;;;;;32.59;30.28;100776.34;5090669;28;20028;-82
2023/07/10 09:15:32;;;;;;;11.15;4.25;;;;;;;32.60;30.00;100775.25;5090357;28;20448;-83
2023/07/10 09:18:12;;;;;;;4.63;3.15;;;;;;;32.87;29.32;100789.94;5090426;28;20024;-85
2023/07/10 09:20:38;;;;;;;5.70;3.72;;;;;;;33.02;28.87;100776.13;5090256;28;20107;-81
2023/07/10 09:23:33;;;;;;;10.27;3.40;;;;;;;33.18;28.54;100777.09;5091093;28;20108;-84
2023/07/10 09:26:10;;;;;;;11.50;3.45;;;;;;;33.12;28.25;100775.38;5090686;28;20027;-82
2023/07/10 09:28:39;;;;;;;9.23;4.18;;;;;;;32.97;28.99;100769.63;5072736;28;20487;-84
2023/07/10 09:31:44;;;;;;;16.52;3.90;;;;;;;33.11;28.80;100791.25;5092654;28;20080;-81
2023/07/10 09:34:11;;;;;;;6.55;3.33;;;;;;;33.00;28.90;100786.66;4990940;28;20050;-84
2023/07/10 09:36:36;;;;;;;5.65;3.80;;;;;;;32.95;28.82;100767.13;4975647;28;20643;-80
2023/07/10 09:39:03;;;;;;;5.47;3.92;;;;;;;32.96;29.12;100765.19;4992848;28;20030;-81
2023/07/10 09:41:30;;;;;;;6.65;3.33;;;;;;;33.12;29.18;100776.19;5005019;28;20061;-81
2023/07/10 09:44:10;;;;;;;22.45;4.07;;;;;;;33.08;28.94;100758.34;5009805;28;20038;-82
2023/07/10 09:46:36;;;;;;;6.85;3.63;;;;;;;33.18;27.70;100769.53;5008876;28;20452;-84
2023/07/10 09:49:10;;;;;;;7.13;3.80;;;;;;;33.23;27.52;100777.94;5008076;28;20033;-85
2023/07/10 09:51:36;;;;;;;8.98;4.05;;;;;;;33.19;27.24;100775.94;5007404;28;20146;-83
2023/07/10 09:54:07;;;;;;;7.97;3.50;;;;;;;33.09;27.48;100765.56;5008385;28;20034;-83
2023/07/10 09:56:37;;;;;;;9.77;3.60;;;;;;;33.08;27.43;100775.06;5009303;28;20049;-82
2023/07/10 09:59:18;;;;;;;9.73;3.88;;;;;;;32.99;27.71;100771.06;5009011;28;20037;-82
2023/07/10 10:01:46;;;;;;;4.67;3.37;;;;;;;32.95;28.40;100769.94;5015589;28;20052;-83
2023/07/10 10:04:12;;;;;;;5.78;3.63;;;;;;;32.82;28.56;100750.88;5013768;28;20265;-84
2023/07/10 10:06:41;;;;;;;13.10;3.47;;;;;;;32.83;28.75;100755.34;5008146;28;20033;-83
2023/07/10 10:09:22;;;;;;;10.18;3.92;;;;;;;32.84;28.90;100755.06;5034840;28;20491;-83
2023/07/10 10:11:52;;;;;;;38.58;23.15;;;;;;;32.92;29.26;100762.09;5110296;28;20028;-83
2023/07/10 10:14:22;;;;;;;7.55;3.90;;;;;;;33.06;29.11;100768.88;5091488;28;20419;-81
2023/07/10 10:16:53;;;;;;;12.68;4.47;;;;;;;33.02;29.29;100755.75;5109683;28;20089;-82
2023/07/10 10:19:25;;;;;;;12.77;3.77;;;;;;;33.02;28.96;100747.41;5109753;28;20160;-82
2023/07/10 10:21:50;;;;;;;9.55;3.75;;;;;;;32.97;28.72;100734.25;5109891;28;20024;-83
2023/07/10 10:24:17;;;;;;;20.33;3.85;;;;;;;33.12;28.93;100751.09;5109363;28;20034;-82
2023/07/10 10:27:00;;;;;;;13.02;4.15;;;;;;;33.22;28.91;100744.75;5109429;28;20031;-83
2023/07/10 10:29:28;;;;;;;7.78;3.88;;;;;;;33.36;28.68;100743.97;5109091;28;20046;-82
2023/07/10 10:32:10;;;;;;;9.98;3.30;;;;;;;33.53;27.83;100731.75;5109458;28;20032;-82
2023/07/10 10:35:02;;;;;;;7.40;3.88;;;;;;;33.62;27.42;100736.56;5109628;28;20027;-84
2023/07/10 10:37:33;;;;;;;13.95;3.38;;;;;;;33.66;27.25;100725.72;5109104;28;20491;-84
2023/07/10 10:40:09;;;;;;;11.70;3.72;;;;;;;33.61;27.82;100722.91;5090966;28;20055;-83
2023/07/10 10:42:43;;;;;;;7.75;3.35;;;;;;;33.67;27.86;100699.50;5110186;28;20031;-86
2023/07/10 10:45:20;;;;;;;12.73;3.35;;;;;;;33.94;27.96;100706.50;5109493;28;20027;-86
2023/07/10 10:48:12;;;;;;;5.95;4.50;;;;;;;34.08;26.98;100706.81;5109342;28;20077;-83
2023/07/10 10:50:55;;;;;;;7.15;3.10;;;;;;;34.18;27.08;100690.09;5109205;28;20020;-82
2023/07/10 10:53:33;;;;;;;7.18;3.38;;;;;;;34.42;26.90;100696.78;5109292;28;20076;-82
2023/07/10 10:56:13;;;;;;;6.40;3.53;;;;;;;34.62;26.94;100703.47;5091230;28;20407;-81
2023/07/10 10:58:50;;;;;;;6.38;3.35;;;;;;;34.70;26.80;100686.16;5109235;28;20031;-83
2023/07/10 11:01:40;;;;;;;6.22;3.95;;;;;;;34.73;26.53;100691.19;5109722;28;20030;-84
2023/07/10 11:04:19;;;;;;;6.40;3.53;;;;;;;34.72;26.47;100700.69;5109142;28;20038;-83
2023/07/10 11:06:49;;;;;;;9.35;2.95;;;;;;;34.83;26.31;100685.59;5108537;28;20102;-82
2023/07/10 11:09:22;;;;;;;10.75;3.08;;;;;;;34.88;26.43;100672.44;5109170;28;20027;-81
2023/07/10 11:11:48;;;;;;;4.07;2.85;;;;;;;34.90;26.49;100686.09;5108513;28;20027;-83
2023/07/10 11:14:14;;;;;;;12.20;3.78;;;;;;;34.72;26.69;100681.13;5109151;28;20035;-83
2023/07/10 11:16:40;;;;;;;4.28;3.03;;;;;;;34.58;26.40;100693.97;5109404;28;20506;-87
2023/07/10 11:19:13;;;;;;;12.10;3.10;;;;;;;34.32;26.32;100668.84;5109142;28;20468;-80
2023/07/10 11:21:39;;;;;;;9.27;4.07;;;;;;;34.16;26.78;100653.22;5113183;28;20023;-80
2023/07/10 11:24:16;;;;;;;7.47;3.45;;;;;;;34.10;27.24;100653.50;5108656;28;20019;-81
2023/07/10 11:26:42;;;;;;;8.18;4.68;;;;;;;34.30;27.03;100671.09;5108341;28;20106;-80